Time;durP1;ratioP1;P1;durP2;ratioP2;P2;SDS_P1;SDS_P2;PMS_P1;PMS_P2;Temp;Humidity;BMP_temperature;BMP_pressure;BME280_temperature;BME280_humidity;BME280_pressure;Samples;Min_cycle;Max_cycle;Signal;HPM_P1;HPM_P2
2021/10/15 00:00:33;;;;;;;3.30;1.80;;;22.00;52.30;;;;;;5031792;28;20414;-81
2021/10/15 00:03:00;;;;;;;1.80;1.70;;;22.00;52.20;;;;;;5021379;28;20455;-81
2021/10/15 00:05:29;;;;;;;2.80;2.00;;;22.00;52.20;;;;;;5043343;28;20461;-81
2021/10/15 00:07:55;;;;;;;1.60;1.50;;;21.90;52.20;;;;;;5032280;28;20447;-81
2021/10/15 00:10:25;;;;;;;3.10;1.87;;;21.90;52.20;;;;;;5031961;28;20429;-81
2021/10/15 00:12:53;;;;;;;2.60;2.10;;;21.90;52.20;;;;;;5049614;28;20450;-82
2021/10/15 00:15:20;;;;;;;1.60;1.40;;;21.90;52.20;;;;;;5049508;28;20442;-81
2021/10/15 00:17:46;;;;;;;1.50;1.40;;;21.90;52.20;;;;;;5019831;28;20462;-82
2021/10/15 00:20:14;;;;;;;1.73;1.63;;;21.90;52.20;;;;;;5033547;28;20415;-81
2021/10/15 00:22:41;;;;;;;1.60;1.50;;;21.90;52.20;;;;;;5033743;28;20422;-82
2021/10/15 00:25:14;;;;;;;1.50;1.30;;;21.90;52.20;;;;;;5031327;28;20420;-81
2021/10/15 00:27:40;;;;;;;2.07;1.43;;;21.90;52.20;;;;;;5015696;28;20423;-81
2021/10/15 00:30:16;;;;;;;1.60;1.50;;;21.90;52.20;;;;;;5040999;28;20442;-81
2021/10/15 00:35:38;;;;;;;1.70;1.60;;;21.90;52.20;;;;;;5052846;28;20437;-81
2021/10/15 00:38:08;;;;;;;1.70;1.60;;;21.90;52.20;;;;;;5050938;28;20423;-81
2021/10/15 00:40:38;;;;;;;1.60;1.50;;;21.90;52.20;;;;;;4998541;28;20835;-81
2021/10/15 00:43:03;;;;;;;1.43;1.20;;;21.90;52.20;;;;;;5005608;28;20418;-81
2021/10/15 00:45:31;;;;;;;2.13;1.63;;;21.90;52.30;;;;;;5034826;28;20442;-81
2021/10/15 00:47:57;;;;;;;1.47;1.33;;;21.90;52.20;;;;;;5052022;28;20180;-81
2021/10/15 00:50:23;;;;;;;1.50;1.40;;;21.90;52.20;;;;;;5017005;28;20469;-81
2021/10/15 00:52:50;;;;;;;1.80;1.60;;;21.90;52.30;;;;;;5033992;28;20466;-81
2021/10/15 00:55:18;;;;;;;1.57;1.47;;;21.90;52.20;;;;;;5016967;28;20920;-81
2021/10/15 00:57:48;;;;;;;1.60;1.50;;;21.90;52.20;;;;;;5034536;28;20442;-81
2021/10/15 01:00:14;;;;;;;2.03;1.83;;;21.90;52.20;;;;;;5044137;28;20422;-81
2021/10/15 01:02:43;;;;;;;1.60;1.47;;;21.90;52.20;;;;;;5033828;28;20493;-81
2021/10/15 01:05:09;;;;;;;1.80;1.53;;;21.90;52.20;;;;;;5033823;28;20431;-81
2021/10/15 01:07:38;;;;;;;1.77;1.40;;;21.90;52.20;;;;;;5025844;28;20411;-81
2021/10/15 01:10:08;;;;;;;1.80;1.70;;;21.90;52.20;;;;;;5033082;28;20430;-81
2021/10/15 01:12:37;;;;;;;1.77;1.60;;;21.90;52.20;;;;;;5048907;28;20457;-81
2021/10/15 01:15:06;;;;;;;1.50;1.40;;;21.90;52.20;;;;;;5045846;28;20437;-81
2021/10/15 01:17:33;;;;;;;1.70;1.57;;;21.90;52.20;;;;;;5051815;28;20414;-81
2021/10/15 01:20:06;;;;;;;1.47;1.37;;;21.90;52.20;;;;;;5049626;28;20788;-81
2021/10/15 01:22:37;;;;;;;1.50;1.40;;;21.90;52.20;;;;;;5050462;28;20446;-82
2021/10/15 01:25:05;;;;;;;1.40;1.30;;;21.90;52.20;;;;;;5016731;28;20522;-82
2021/10/15 01:27:31;;;;;;;1.50;1.40;;;21.90;52.20;;;;;;5048331;28;20428;-81
2021/10/15 01:29:58;;;;;;;2.23;1.30;;;21.90;52.20;;;;;;5043786;28;20497;-81
2021/10/15 01:32:25;;;;;;;2.10;1.90;;;21.90;52.20;;;;;;5016745;28;20227;-81
2021/10/15 01:34:51;;;;;;;1.27;1.17;;;21.90;52.20;;;;;;5050582;28;20427;-81
2021/10/15 01:37:18;;;;;;;1.47;1.37;;;21.90;52.20;;;;;;5050806;28;20448;-81
2021/10/15 01:39:44;;;;;;;2.27;1.60;;;21.90;52.20;;;;;;5021499;28;20432;-81
2021/10/15 01:42:53;;;;;;;1.47;1.37;;;21.90;52.20;;;;;;5014594;28;21055;-81
2021/10/15 01:44:56;;;;;;;1.93;1.60;;;21.90;52.20;;;;;;5044763;28;20180;-81
2021/10/15 01:47:25;;;;;;;1.60;1.40;;;21.90;52.20;;;;;;5047065;28;20920;-81
2021/10/15 01:49:51;;;;;;;1.70;1.60;;;21.90;52.30;;;;;;5050082;28;20432;-81
2021/10/15 01:52:17;;;;;;;2.70;1.60;;;21.90;52.30;;;;;;5012732;28;20490;-82
2021/10/15 01:54:43;;;;;;;1.80;1.60;;;21.90;52.30;;;;;;5050047;28;20184;-81
2021/10/15 01:57:09;;;;;;;1.40;1.20;;;21.90;52.30;;;;;;5042855;28;20437;-82
2021/10/15 01:59:35;;;;;;;1.60;1.50;;;21.90;52.30;;;;;;5048428;28;20203;-82
2021/10/15 02:02:01;;;;;;;2.13;1.43;;;21.90;52.30;;;;;;5050787;28;20407;-81
2021/10/15 02:04:27;;;;;;;1.30;1.20;;;21.80;52.20;;;;;;5030217;28;20184;-81
2021/10/15 02:06:53;;;;;;;1.53;1.40;;;21.90;52.20;;;;;;5031951;28;20191;-81
2021/10/15 02:09:20;;;;;;;1.70;1.60;;;21.90;52.30;;;;;;5032596;28;20410;-81
2021/10/15 02:11:49;;;;;;;1.50;1.30;;;21.90;52.30;;;;;;5033413;28;20297;-81
2021/10/15 02:14:15;;;;;;;1.73;1.30;;;21.90;52.20;;;;;;5025104;28;20443;-81
2021/10/15 02:16:41;;;;;;;1.80;1.53;;;21.80;52.20;;;;;;5050217;28;20522;-81
2021/10/15 02:22:31;;;;;;;4.77;1.60;;;21.90;52.30;;;;;;5050129;28;20661;-82
2021/10/15 02:24:56;;;;;;;1.40;1.30;;;21.80;52.20;;;;;;5032931;28;20423;-81
2021/10/15 02:27:23;;;;;;;1.70;1.50;;;21.80;52.20;;;;;;5042282;28;20453;-82
2021/10/15 02:29:49;;;;;;;1.97;1.53;;;21.90;52.30;;;;;;5032576;28;20184;-81
2021/10/15 02:32:15;;;;;;;1.70;1.30;;;21.80;52.20;;;;;;5051498;28;20462;-81
2021/10/15 02:34:42;;;;;;;1.37;1.27;;;21.80;52.20;;;;;;5018322;28;20454;-81
2021/10/15 02:37:08;;;;;;;1.83;1.67;;;21.80;52.20;;;;;;5051535;28;20496;-81
2021/10/15 02:39:34;;;;;;;1.37;1.27;;;21.90;52.30;;;;;;5033846;28;20414;-81
2021/10/15 02:42:03;;;;;;;1.87;1.20;;;21.90;52.30;;;;;;5033621;28;20448;-81
2021/10/15 02:44:29;;;;;;;1.60;1.33;;;21.80;52.20;;;;;;5051297;28;20402;-81
2021/10/15 02:46:57;;;;;;;1.40;1.17;;;21.80;52.20;;;;;;5050894;28;20409;-81
2021/10/15 02:49:22;;;;;;;1.80;1.60;;;21.80;52.20;;;;;;5032867;28;20418;-81
2021/10/15 02:51:48;;;;;;;1.50;1.40;;;21.90;52.30;;;;;;5028205;28;20458;-81
2021/10/15 02:54:14;;;;;;;1.40;1.30;;;21.80;52.20;;;;;;5036300;28;20211;-81
2021/10/15 02:56:45;;;;;;;1.60;1.50;;;21.90;52.30;;;;;;5048410;28;20168;-81
2021/10/15 02:59:11;;;;;;;1.73;1.30;;;21.90;52.30;;;;;;5034817;28;20175;-81
2021/10/15 03:01:37;;;;;;;2.10;1.70;;;21.80;52.20;;;;;;5025808;28;20425;-81
2021/10/15 03:04:03;;;;;;;1.50;1.40;;;21.80;52.20;;;;;;5030457;28;20187;-81
2021/10/15 03:06:29;;;;;;;1.53;1.43;;;21.80;52.20;;;;;;5030986;28;20437;-81
2021/10/15 03:08:55;;;;;;;2.33;1.57;;;21.90;52.30;;;;;;5049095;28;20493;-81
2021/10/15 03:11:21;;;;;;;1.47;1.37;;;21.90;52.30;;;;;;5030378;28;20179;-81
2021/10/15 03:13:46;;;;;;;1.80;1.70;;;21.80;52.20;;;;;;5029528;28;20461;-81
2021/10/15 03:16:12;;;;;;;1.90;1.63;;;21.90;52.30;;;;;;5044449;28;20216;-82
2021/10/15 03:18:40;;;;;;;2.00;1.60;;;21.90;52.30;;;;;;5047948;28;20183;-81
2021/10/15 03:21:07;;;;;;;1.80;1.33;;;21.80;52.20;;;;;;5033349;28;20493;-81
2021/10/15 03:23:34;;;;;;;1.43;1.30;;;21.80;52.20;;;;;;5033416;28;20480;-81
2021/10/15 03:26:01;;;;;;;1.40;1.30;;;21.80;52.20;;;;;;5025150;28;20427;-81
2021/10/15 03:28:29;;;;;;;1.90;1.80;;;21.80;52.20;;;;;;5048376;28;20434;-81
2021/10/15 03:30:55;;;;;;;1.43;1.33;;;21.80;52.20;;;;;;5032300;28;20423;-82
2021/10/15 03:33:23;;;;;;;1.67;1.50;;;21.90;52.30;;;;;;5062909;28;20466;-81
2021/10/15 03:35:51;;;;;;;1.90;1.40;;;21.80;52.20;;;;;;5042193;28;20489;-81
2021/10/15 03:38:17;;;;;;;1.57;1.33;;;21.80;52.20;;;;;;5030636;28;20415;-81
2021/10/15 03:40:43;;;;;;;1.30;1.20;;;21.80;52.20;;;;;;5014449;28;20446;-81
2021/10/15 03:43:08;;;;;;;1.93;1.53;;;21.90;52.30;;;;;;5029014;28;20190;-82
2021/10/15 03:45:34;;;;;;;1.70;1.20;;;21.80;52.20;;;;;;5033957;28;20702;-81
2021/10/15 03:48:19;;;;;;;1.23;1.13;;;21.80;52.20;;;;;;5030391;28;20186;-82
2021/10/15 03:50:45;;;;;;;1.97;1.57;;;21.90;52.20;;;;;;5045384;28;20187;-81
2021/10/15 03:53:13;;;;;;;1.50;1.40;;;21.80;52.20;;;;;;5033047;28;20515;-81
2021/10/15 03:55:39;;;;;;;1.67;1.37;;;21.80;52.30;;;;;;5037821;28;20180;-81
2021/10/15 03:58:05;;;;;;;1.50;1.40;;;21.80;52.20;;;;;;5044200;28;20421;-81
2021/10/15 04:00:32;;;;;;;1.73;1.53;;;21.80;52.20;;;;;;5035898;28;20565;-81
2021/10/15 04:02:58;;;;;;;1.53;1.43;;;21.80;52.20;;;;;;5037836;28;20179;-81
2021/10/15 04:05:33;;;;;;;1.37;1.27;;;21.80;52.20;;;;;;5067021;28;20447;-82
2021/10/15 04:07:58;;;;;;;1.67;1.57;;;21.80;52.20;;;;;;5034904;28;20439;-81
2021/10/15 04:10:24;;;;;;;1.90;1.50;;;21.80;52.20;;;;;;5054889;28;21060;-81
2021/10/15 04:12:53;;;;;;;1.63;1.50;;;21.80;52.20;;;;;;5041341;28;20199;-81
2021/10/15 04:15:19;;;;;;;1.40;1.10;;;21.80;52.30;;;;;;5054225;28;20476;-81
2021/10/15 04:17:46;;;;;;;1.70;1.47;;;21.80;52.30;;;;;;5038853;28;20423;-82
2021/10/15 04:20:13;;;;;;;1.63;1.40;;;21.80;52.30;;;;;;5034787;28;20418;-81
2021/10/15 04:22:39;;;;;;;1.57;1.30;;;21.80;52.20;;;;;;5038731;28;20415;-81
2021/10/15 04:25:06;;;;;;;1.97;1.20;;;21.80;52.20;;;;;;5035783;28;20505;-81
2021/10/15 04:27:33;;;;;;;1.50;1.40;;;21.80;52.20;;;;;;5057193;28;20176;-81
2021/10/15 04:29:58;;;;;;;1.37;1.27;;;21.80;52.20;;;;;;5051228;28;20425;-82
2021/10/15 04:32:24;;;;;;;1.30;1.20;;;21.80;52.20;;;;;;5035934;28;20465;-81
2021/10/15 04:34:50;;;;;;;1.50;1.40;;;21.80;52.20;;;;;;5031376;28;20542;-81
2021/10/15 04:37:17;;;;;;;2.40;1.60;;;21.80;52.20;;;;;;5044740;28;20196;-81
2021/10/15 04:39:43;;;;;;;1.60;1.50;;;21.80;52.20;;;;;;5027108;28;20418;-81
2021/10/15 04:42:09;;;;;;;1.50;1.40;;;21.80;52.20;;;;;;5051374;28;20442;-81
2021/10/15 04:44:35;;;;;;;2.47;1.57;;;21.80;52.20;;;;;;5058838;28;20410;-81
2021/10/15 04:47:01;;;;;;;1.70;1.37;;;21.90;52.20;;;;;;5052064;28;20183;-81
2021/10/15 04:49:27;;;;;;;3.10;1.63;;;21.90;52.20;;;;;;5050723;28;20520;-81
2021/10/15 04:51:55;;;;;;;1.80;1.23;;;21.90;52.20;;;;;;5051970;28;20515;-81
2021/10/15 04:54:21;;;;;;;1.33;1.23;;;21.80;52.10;;;;;;5035964;28;20920;-82
2021/10/15 04:56:48;;;;;;;1.40;1.30;;;21.90;52.10;;;;;;5036712;28;20485;-81
2021/10/15 04:59:15;;;;;;;1.23;1.13;;;21.90;52.10;;;;;;5031014;28;20439;-81
2021/10/15 05:01:42;;;;;;;1.33;1.17;;;21.90;52.10;;;;;;5042803;28;20441;-82
2021/10/15 05:04:08;;;;;;;1.40;1.30;;;21.90;52.00;;;;;;5019580;28;20979;-82
2021/10/15 05:06:34;;;;;;;1.53;1.43;;;21.90;52.00;;;;;;5029302;28;20425;-82
2021/10/15 05:11:35;;;;;;;1.40;1.10;;;21.90;52.00;;;;;;5050070;28;20492;-82
2021/10/15 05:14:02;;;;;;;1.27;1.10;;;22.00;52.10;;;;;;5054934;28;20434;-82
2021/10/15 05:16:28;;;;;;;1.30;1.10;;;22.00;52.00;;;;;;5051158;28;20425;-82
2021/10/15 05:18:54;;;;;;;1.20;1.00;;;22.00;52.00;;;;;;5054741;28;20430;-83
2021/10/15 05:21:20;;;;;;;2.30;1.60;;;21.90;51.90;;;;;;5049806;28;20255;-82
2021/10/15 05:23:46;;;;;;;1.30;1.10;;;22.00;52.00;;;;;;5031493;28;20440;-82
2021/10/15 05:26:13;;;;;;;2.33;1.30;;;22.00;52.00;;;;;;5049837;28;20176;-82
2021/10/15 05:28:42;;;;;;;1.43;1.10;;;22.00;52.00;;;;;;5049240;28;20516;-82
2021/10/15 05:31:10;;;;;;;1.53;1.20;;;22.00;52.00;;;;;;5036332;28;20449;-82
2021/10/15 05:33:36;;;;;;;1.30;1.20;;;22.00;52.00;;;;;;5066483;28;20481;-82
2021/10/15 05:36:02;;;;;;;1.20;1.10;;;22.00;52.00;;;;;;5011754;28;20438;-82
2021/10/15 05:38:29;;;;;;;1.50;1.30;;;22.00;51.90;;;;;;5042585;28;20415;-82
2021/10/15 05:40:55;;;;;;;1.83;1.50;;;22.10;52.00;;;;;;5030593;28;20502;-82
2021/10/15 05:43:23;;;;;;;1.70;1.60;;;22.00;51.90;;;;;;5044518;28;20427;-82
2021/10/15 05:45:49;;;;;;;1.80;1.70;;;22.00;51.80;;;;;;5025951;28;20251;-82
2021/10/15 05:48:15;;;;;;;1.70;1.50;;;22.00;51.80;;;;;;5034569;28;20427;-82
2021/10/15 05:50:44;;;;;;;1.87;1.70;;;22.00;51.90;;;;;;5049724;28;20176;-82
2021/10/15 05:53:17;;;;;;;1.67;1.57;;;22.00;51.90;;;;;;5048129;28;20513;-82
2021/10/15 05:56:05;;;;;;;1.80;1.30;;;22.00;51.90;;;;;;5036090;28;20430;-82
2021/10/15 06:01:29;;;;;;;2.27;1.70;;;21.90;51.90;;;;;;5049495;28;20425;-82
2021/10/15 06:14:43;;;;;;;2.40;1.83;;;21.90;51.90;;;;;;5050659;28;20448;-82
2021/10/15 06:17:17;;;;;;;1.97;1.40;;;21.90;52.00;;;;;;5050719;28;20398;-81
2021/10/15 06:22:38;;;;;;;2.10;1.90;;;21.90;52.00;;;;;;5009064;28;20431;-82
2021/10/15 06:25:04;;;;;;;2.00;1.80;;;21.90;52.00;;;;;;5010122;28;20436;-81
2021/10/15 06:27:30;;;;;;;2.33;1.50;;;21.90;52.00;;;;;;4975142;28;20476;-83
2021/10/15 06:29:56;;;;;;;1.47;1.37;;;21.90;52.00;;;;;;5002280;28;20500;-83
2021/10/15 06:32:23;;;;;;;1.70;1.60;;;22.00;52.00;;;;;;5004824;28;20228;-83
2021/10/15 06:34:49;;;;;;;1.73;1.57;;;22.00;52.00;;;;;;4997760;28;20417;-83
2021/10/15 06:37:17;;;;;;;1.47;1.37;;;22.00;52.00;;;;;;4989241;28;20489;-83
2021/10/15 06:39:43;;;;;;;1.30;1.17;;;22.00;52.00;;;;;;4989092;28;20459;-83
2021/10/15 06:42:09;;;;;;;1.97;1.20;;;22.00;52.00;;;;;;4973039;28;20440;-83
2021/10/15 06:44:37;;;;;;;2.00;1.47;;;22.00;51.90;;;;;;4989595;28;20421;-83
2021/10/15 06:47:03;;;;;;;3.40;1.27;;;22.00;51.90;;;;;;4989022;28;20452;-83
2021/10/15 06:49:28;;;;;;;1.70;1.60;;;22.00;51.90;;;;;;4988757;28;20417;-83
2021/10/15 06:51:54;;;;;;;1.50;1.37;;;22.00;52.00;;;;;;4989535;28;20312;-83
2021/10/15 06:57:41;;;;;;;1.90;1.67;;;22.10;52.50;;;;;;5005299;28;20207;-83
2021/10/15 07:00:08;;;;;;;1.60;1.50;;;22.00;51.90;;;;;;5004832;28;20446;-83
2021/10/15 07:02:34;;;;;;;1.50;1.40;;;22.00;51.90;;;;;;5045793;28;20426;-83
2021/10/15 07:05:00;;;;;;;1.77;1.67;;;22.00;51.90;;;;;;5032957;28;20449;-83
2021/10/15 07:07:27;;;;;;;1.60;1.40;;;22.00;51.90;;;;;;5032192;28;20426;-83
2021/10/15 07:09:53;;;;;;;2.27;1.40;;;22.00;51.90;;;;;;5023363;28;20179;-83
2021/10/15 07:12:18;;;;;;;1.80;1.60;;;22.00;51.90;;;;;;5049140;28;20624;-83
2021/10/15 07:18:07;;;;;;;1.50;1.40;;;22.10;51.90;;;;;;5029623;28;20258;-83
2021/10/15 07:20:32;;;;;;;1.73;1.63;;;22.00;51.90;;;;;;5039973;28;20496;-83
2021/10/15 07:22:58;;;;;;;1.40;1.30;;;22.00;51.90;;;;;;5048828;28;20883;-83
2021/10/15 07:25:24;;;;;;;1.50;1.40;;;22.00;51.90;;;;;;5064645;28;20182;-83
2021/10/15 07:27:50;;;;;;;1.60;1.43;;;22.00;51.90;;;;;;5032705;28;20187;-82
2021/10/15 07:30:16;;;;;;;1.50;1.00;;;22.00;51.90;;;;;;5035542;28;20410;-82
2021/10/15 07:32:48;;;;;;;2.20;1.20;;;22.00;51.90;;;;;;5052743;28;20485;-82
2021/10/15 07:35:15;;;;;;;1.20;1.10;;;22.00;51.90;;;;;;5035436;28;20403;-82
2021/10/15 07:37:41;;;;;;;1.27;1.10;;;22.00;51.90;;;;;;5052874;28;20808;-82
2021/10/15 07:40:08;;;;;;;1.07;0.97;;;22.00;51.90;;;;;;5039366;28;20184;-82
2021/10/15 07:42:33;;;;;;;1.70;1.40;;;22.00;52.50;;;;;;5037477;28;20242;-82
2021/10/15 07:44:59;;;;;;;1.17;1.07;;;22.10;52.00;;;;;;5015262;28;20411;-82
2021/10/15 07:47:25;;;;;;;1.37;1.20;;;22.10;52.00;;;;;;5025742;28;20189;-82
2021/10/15 07:49:51;;;;;;;1.20;1.00;;;22.10;52.00;;;;;;5031869;28;20451;-82
2021/10/15 07:52:17;;;;;;;1.17;1.07;;;22.10;52.00;;;;;;5033302;28;20204;-82
2021/10/15 07:54:43;;;;;;;1.53;1.10;;;22.10;52.00;;;;;;5032353;28;20190;-82
2021/10/15 07:57:11;;;;;;;2.33;1.40;;;22.10;52.00;;;;;;5032343;28;20480;-82
2021/10/15 07:59:37;;;;;;;1.47;1.33;;;22.10;52.00;;;;;;5033344;28;20183;-82
2021/10/15 08:02:03;;;;;;;1.23;1.10;;;22.10;52.00;;;;;;5032202;28;20890;-82
2021/10/15 08:04:29;;;;;;;1.47;1.37;;;22.10;52.00;;;;;;5050168;28;20199;-82
2021/10/15 08:06:55;;;;;;;1.37;1.27;;;22.10;52.00;;;;;;5049308;28;20206;-82
2021/10/15 08:09:21;;;;;;;1.40;1.20;;;22.10;52.00;;;;;;5065401;28;20422;-82
2021/10/15 08:11:47;;;;;;;1.30;1.20;;;22.10;52.00;;;;;;5031969;28;20231;-82
2021/10/15 08:14:13;;;;;;;1.60;1.10;;;22.10;52.00;;;;;;5032533;28;20572;-82
2021/10/15 08:16:39;;;;;;;1.30;1.20;;;22.10;52.00;;;;;;5065679;28;20407;-82
2021/10/15 08:19:05;;;;;;;1.20;1.10;;;22.10;52.00;;;;;;5049050;28;20426;-82
2021/10/15 08:21:31;;;;;;;1.10;1.00;;;22.10;52.00;;;;;;5032083;28;20425;-82
2021/10/15 08:23:56;;;;;;;1.40;1.17;;;22.10;52.00;;;;;;5032053;28;20203;-82
2021/10/15 08:26:25;;;;;;;1.63;1.33;;;22.10;51.90;;;;;;5032900;28;20186;-82
2021/10/15 08:28:57;;;;;;;1.30;1.20;;;22.20;52.00;;;;;;5048943;28;20172;-82
2021/10/15 08:34:44;;;;;;;1.20;1.10;;;22.10;51.90;;;;;;5015403;28;20383;-82
2021/10/15 08:37:10;;;;;;;1.67;1.23;;;22.10;52.00;;;;;;5010623;28;20507;-82
2021/10/15 08:39:35;;;;;;;1.27;1.13;;;22.10;52.00;;;;;;5020633;28;20227;-82
2021/10/15 08:42:01;;;;;;;1.87;1.10;;;22.10;52.00;;;;;;5018479;28;20180;-82
2021/10/15 08:44:35;;;;;;;1.20;1.00;;;22.10;52.00;;;;;;5010107;28;20187;-82
2021/10/15 08:47:03;;;;;;;1.53;1.20;;;22.10;52.00;;;;;;5023209;28;20192;-82
2021/10/15 08:49:29;;;;;;;1.47;1.27;;;22.10;52.00;;;;;;5011124;28;20514;-82
2021/10/15 08:51:55;;;;;;;1.53;1.20;;;22.10;52.00;;;;;;5011929;28;20486;-82
2021/10/15 08:54:20;;;;;;;1.33;1.20;;;22.10;52.00;;;;;;5027510;28;20183;-82
2021/10/15 08:56:46;;;;;;;1.33;1.20;;;22.10;52.00;;;;;;5011306;28;20188;-82
2021/10/15 08:59:15;;;;;;;1.43;1.20;;;22.10;52.00;;;;;;5027476;28;20176;-82
2021/10/15 09:01:49;;;;;;;1.40;1.20;;;22.20;52.00;;;;;;5026944;28;20419;-82
2021/10/15 09:04:19;;;;;;;1.50;1.40;;;22.20;52.00;;;;;;5027477;28;20929;-83
2021/10/15 09:06:49;;;;;;;1.53;1.23;;;22.10;52.00;;;;;;5010360;28;20458;-82
2021/10/15 09:09:27;;;;;;;1.40;1.23;;;22.20;52.00;;;;;;5042228;28;20449;-82
2021/10/15 09:12:09;;;;;;;1.30;1.20;;;22.20;52.00;;;;;;5047778;28;20458;-82
2021/10/15 09:14:37;;;;;;;2.70;1.27;;;22.20;52.00;;;;;;5035127;28;20429;-82
2021/10/15 09:17:10;;;;;;;1.40;1.27;;;22.10;52.00;;;;;;5035638;28;20994;-82
2021/10/15 09:19:50;;;;;;;1.20;1.03;;;22.20;52.00;;;;;;5033360;28;20477;-82
2021/10/15 09:22:34;;;;;;;1.17;1.00;;;22.20;52.00;;;;;;5033937;28;20430;-82
2021/10/15 09:25:07;;;;;;;1.50;1.40;;;22.20;52.00;;;;;;5033309;28;20423;-82
2021/10/15 09:27:39;;;;;;;1.20;1.10;;;22.20;52.10;;;;;;5047766;28;20421;-82
2021/10/15 09:30:12;;;;;;;1.30;1.20;;;22.20;52.10;;;;;;5043733;28;20418;-82
2021/10/15 09:32:44;;;;;;;1.27;1.17;;;22.20;52.00;;;;;;5048144;28;20840;-82
2021/10/15 09:35:13;;;;;;;1.30;1.10;;;22.20;52.00;;;;;;5049085;28;20417;-82
2021/10/15 09:37:42;;;;;;;1.23;1.10;;;22.20;52.00;;;;;;5035302;28;20433;-82
2021/10/15 09:40:13;;;;;;;1.20;1.10;;;22.20;52.00;;;;;;5049123;28;20419;-82
2021/10/15 09:42:44;;;;;;;1.20;1.10;;;22.20;52.00;;;;;;5034924;28;20411;-82
2021/10/15 09:45:15;;;;;;;1.10;1.00;;;22.20;52.00;;;;;;5048463;28;20426;-82
2021/10/15 09:47:47;;;;;;;1.50;1.13;;;22.20;52.00;;;;;;5036068;28;20418;-83
2021/10/15 09:50:15;;;;;;;1.40;1.30;;;22.20;52.00;;;;;;5038244;28;20427;-82
2021/10/15 09:52:44;;;;;;;1.50;1.20;;;22.20;52.00;;;;;;5016411;28;20466;-82
2021/10/15 09:55:20;;;;;;;1.50;1.23;;;22.20;51.90;;;;;;5038409;28;20442;-82
2021/10/15 09:57:50;;;;;;;1.83;1.67;;;22.20;51.90;;;;;;5031925;28;20510;-82
2021/10/15 10:00:21;;;;;;;1.50;1.30;;;22.20;52.00;;;;;;5050631;28;20418;-82
2021/10/15 10:02:48;;;;;;;2.10;1.23;;;22.10;51.90;;;;;;5030524;28;20450;-82
2021/10/15 10:05:16;;;;;;;1.80;1.20;;;22.10;51.90;;;;;;5037588;28;20497;-82
2021/10/15 10:07:48;;;;;;;1.80;1.40;;;22.10;51.90;;;;;;5035616;28;20429;-82
2021/10/15 10:10:19;;;;;;;1.47;1.20;;;22.20;52.00;;;;;;5041029;28;20498;-82
2021/10/15 10:12:47;;;;;;;1.80;1.30;;;22.10;51.90;;;;;;5024656;28;20521;-83
2021/10/15 10:15:15;;;;;;;1.30;1.00;;;22.10;51.90;;;;;;5028085;28;20426;-83
2021/10/15 10:18:17;;;;;;;1.87;1.50;;;22.10;51.90;;;;;;5063963;28;20414;-82
2021/10/15 10:20:50;;;;;;;1.60;1.30;;;22.20;52.00;;;;;;5028396;28;20450;-82
2021/10/15 10:23:26;;;;;;;1.40;1.10;;;22.10;52.00;;;;;;5046136;28;20895;-82
2021/10/15 10:26:07;;;;;;;2.03;1.40;;;22.10;52.00;;;;;;5033543;28;20944;-83
2021/10/15 10:28:34;;;;;;;1.40;1.30;;;22.10;52.00;;;;;;5032018;28;20429;-83
2021/10/15 10:31:23;;;;;;;1.30;1.20;;;22.10;52.00;;;;;;5046661;28;20796;-82
2021/10/15 10:34:03;;;;;;;1.30;1.00;;;22.10;52.00;;;;;;5019431;28;20449;-82
2021/10/15 10:36:32;;;;;;;1.40;1.13;;;22.10;52.00;;;;;;5049659;28;20410;-82
2021/10/15 10:39:20;;;;;;;1.40;1.20;;;22.10;52.00;;;;;;5050108;28;20758;-82
2021/10/15 10:42:06;;;;;;;1.67;1.30;;;22.10;52.00;;;;;;5049975;28;20411;-81
2021/10/15 10:44:34;;;;;;;1.97;1.20;;;22.10;52.00;;;;;;5042225;28;20414;-82
2021/10/15 10:47:08;;;;;;;2.47;1.47;;;22.10;52.10;;;;;;5032527;28;20418;-82
2021/10/15 10:49:35;;;;;;;1.60;1.50;;;22.10;52.00;;;;;;5044994;28;20425;-83
2021/10/15 10:52:08;;;;;;;2.73;1.70;;;22.10;52.10;;;;;;5046113;28;20493;-82
2021/10/15 10:54:34;;;;;;;1.63;1.50;;;22.20;52.10;;;;;;5045061;28;20430;-82
2021/10/15 10:57:17;;;;;;;2.63;1.70;;;22.10;52.10;;;;;;5050390;28;20474;-83
2021/10/15 10:59:44;;;;;;;3.70;1.90;;;22.20;52.20;;;;;;5044055;28;20422;-83
2021/10/15 11:02:10;;;;;;;2.13;1.93;;;22.10;52.10;;;;;;5045825;28;20418;-82
2021/10/15 11:04:51;;;;;;;4.20;2.13;;;22.20;52.20;;;;;;5048981;28;20421;-81
2021/10/15 11:07:17;;;;;;;2.33;2.00;;;22.20;52.10;;;;;;5045640;28;20247;-83
2021/10/15 11:09:48;;;;;;;2.47;1.97;;;22.20;52.20;;;;;;5031530;28;20433;-82
2021/10/15 11:12:21;;;;;;;2.40;1.90;;;22.20;52.20;;;;;;5049679;28;20450;-83
2021/10/15 11:15:00;;;;;;;3.37;2.33;;;22.20;52.20;;;;;;5048532;28;20418;-82
2021/10/15 11:17:30;;;;;;;2.77;2.03;;;22.20;52.20;;;;;;5043923;28;20411;-83
2021/10/15 11:20:17;;;;;;;2.47;2.10;;;22.20;52.20;;;;;;5044091;28;20445;-82
2021/10/15 11:22:54;;;;;;;2.83;2.10;;;22.20;52.20;;;;;;5051679;28;20432;-82
2021/10/15 11:25:22;;;;;;;3.43;2.00;;;22.20;52.20;;;;;;5039984;28;20438;-82
2021/10/15 11:27:53;;;;;;;2.83;2.00;;;22.20;52.20;;;;;;5034954;28;20430;-83
2021/10/15 11:30:20;;;;;;;2.50;1.73;;;22.20;52.20;;;;;;5032281;28;20434;-82
2021/10/15 11:32:48;;;;;;;2.47;1.70;;;22.20;52.20;;;;;;5038513;28;20893;-82
2021/10/15 11:35:19;;;;;;;3.90;2.27;;;22.20;52.20;;;;;;5043955;28;20438;-81
2021/10/15 11:37:53;;;;;;;2.73;2.20;;;22.20;52.20;;;;;;5041011;28;20433;-82
2021/10/15 11:40:22;;;;;;;3.80;2.53;;;22.20;52.20;;;;;;5049999;28;20430;-82
2021/10/15 11:42:48;;;;;;;3.10;2.03;;;22.20;52.20;;;;;;5049166;28;20417;-82
2021/10/15 11:45:32;;;;;;;4.00;3.50;;;22.20;52.20;;;;;;5050145;28;20426;-82
2021/10/15 11:48:01;;;;;;;2.63;1.73;;;22.20;52.20;;;;;;5042616;28;20441;-82
2021/10/15 11:50:40;;;;;;;2.60;2.10;;;22.20;52.20;;;;;;5050029;28;20434;-82
2021/10/15 11:53:06;;;;;;;2.70;2.00;;;22.30;52.30;;;;;;5033099;28;20462;-81
2021/10/15 11:55:37;;;;;;;5.00;2.90;;;22.20;52.20;;;;;;5049951;28;20423;-81
2021/10/15 11:58:22;;;;;;;3.07;2.33;;;22.20;52.30;;;;;;5028911;28;20437;-81
2021/10/15 12:00:58;;;;;;;3.00;2.53;;;22.30;52.30;;;;;;5050062;28;20513;-81
2021/10/15 12:03:29;;;;;;;3.17;2.30;;;22.30;52.30;;;;;;5039798;28;20480;-81
2021/10/15 12:06:08;;;;;;;2.97;2.23;;;22.20;52.20;;;;;;5053894;28;20860;-81
2021/10/15 12:08:34;;;;;;;3.50;2.70;;;22.30;52.40;;;;;;5038519;28;20426;-81
2021/10/15 12:11:00;;;;;;;3.33;1.83;;;22.20;52.30;;;;;;5049826;28;20438;-82
2021/10/15 12:13:26;;;;;;;4.47;2.40;;;22.30;52.40;;;;;;5052850;28;20507;-82
2021/10/15 12:15:52;;;;;;;3.07;2.67;;;22.30;52.40;;;;;;5061998;28;20445;-83
2021/10/15 12:18:19;;;;;;;4.07;2.30;;;22.30;52.90;;;;;;5053518;28;20414;-83
2021/10/15 12:20:45;;;;;;;4.10;2.90;;;22.30;52.40;;;;;;5045134;28;20187;-83
2021/10/15 12:23:11;;;;;;;3.07;2.67;;;22.30;52.40;;;;;;5042778;28;20433;-82
2021/10/15 12:28:59;;;;;;;3.90;2.43;;;22.30;52.40;;;;;;5053169;28;20166;-83
2021/10/15 12:31:31;;;;;;;4.80;2.00;;;22.20;52.40;;;;;;5052100;28;20445;-82
2021/10/15 12:34:05;;;;;;;3.30;2.37;;;22.30;52.50;;;;;;5052081;28;20179;-82
2021/10/15 12:36:31;;;;;;;2.77;2.30;;;22.30;52.50;;;;;;5053050;28;20417;-82
2021/10/15 12:39:21;;;;;;;2.97;2.13;;;22.30;52.50;;;;;;5037758;28;20441;-83
2021/10/15 12:41:48;;;;;;;3.90;2.23;;;22.30;52.50;;;;;;5048127;28;20403;-82
2021/10/15 12:44:22;;;;;;;2.67;2.33;;;22.30;52.60;;;;;;5038377;28;20478;-82
2021/10/15 12:46:54;;;;;;;2.60;2.20;;;22.30;52.50;;;;;;5036729;28;20430;-82
2021/10/15 12:49:20;;;;;;;3.30;2.13;;;22.30;52.50;;;;;;5037485;28;20477;-83
2021/10/15 12:51:46;;;;;;;4.20;2.97;;;22.20;52.50;;;;;;5052100;28;20458;-82
2021/10/15 12:54:13;;;;;;;3.70;2.30;;;22.20;52.50;;;;;;5038162;28;20194;-81
2021/10/15 12:56:41;;;;;;;3.57;2.13;;;22.30;52.60;;;;;;5039967;28;20187;-81
2021/10/15 12:59:17;;;;;;;3.00;1.93;;;22.30;52.60;;;;;;5039045;28;20422;-82
2021/10/15 13:01:43;;;;;;;2.67;1.87;;;22.30;52.50;;;;;;5039474;28;20422;-82
2021/10/15 13:04:10;;;;;;;3.70;2.77;;;22.20;52.50;;;;;;5037955;28;20460;-81
2021/10/15 13:06:36;;;;;;;2.53;2.10;;;22.20;52.50;;;;;;5039301;28;20188;-82
2021/10/15 13:09:04;;;;;;;3.57;2.20;;;22.20;52.50;;;;;;5038546;28;20518;-83
2021/10/15 13:11:31;;;;;;;2.67;2.20;;;22.20;52.50;;;;;;5052429;28;20183;-82
2021/10/15 13:13:57;;;;;;;2.80;2.30;;;22.30;52.60;;;;;;5030474;28;20545;-83
2021/10/15 13:16:23;;;;;;;3.33;2.23;;;22.20;52.50;;;;;;5036680;28;20505;-82
2021/10/15 13:18:50;;;;;;;3.50;2.17;;;22.20;52.50;;;;;;5052007;28;20438;-82
2021/10/15 13:21:21;;;;;;;3.63;2.37;;;22.20;52.60;;;;;;5052832;28;20421;-82
2021/10/15 13:23:49;;;;;;;2.90;2.30;;;22.20;52.50;;;;;;5048119;28;20418;-82
2021/10/15 13:26:31;;;;;;;4.20;2.53;;;22.20;52.50;;;;;;5026337;28;20517;-82
2021/10/15 13:28:56;;;;;;;2.60;2.03;;;22.30;52.60;;;;;;5050484;28;20759;-83
2021/10/15 13:31:23;;;;;;;3.67;2.70;;;22.20;52.60;;;;;;5051460;28;20410;-82
2021/10/15 13:33:48;;;;;;;5.10;2.73;;;22.20;52.60;;;;;;5042895;28;20172;-82